Dong Hao — 9LU2555 — position and weather

sailwx.info

Track history (hours):
 
Tides and Currents Weather Stations Pressure Air Temp Water Temp Dewpoint Dewpoint Depression Visibility Wind Speed Wind Dir Waves Ship Positions

Dong Hao

Last reported at 2018-Feb-20 22:37 UTC. Time now 2018-Feb-21 19:53 UTC.
Position N 33°15' E 131°45'.

Length 76 m; draft 3.6 m.

Type: Cargo ship. MMSI: 667001752.

Date/timePositionNaut miles runAvg speedWind from/ knotsBaromVisibWave heightAir tempDewpointWater temp
2018-Feb-20 22:37N 33°15' E 131°45'1 5.6
2018-Feb-20 22:24N 33°16' E 131°44'2 3.6
2018-Feb-20 21:53N 33°16' E 131°47'0 0.0
2018-Feb-20 16:49N 33°16' E 131°47'0 0.0
2018-Feb-20 16:19N 33°16' E 131°47'0 0.0
2018-Feb-20 15:55N 33°16' E 131°47'0 0.0
2018-Feb-20 15:25N 33°16' E 131°47'0 0.0
2018-Feb-20 14:25N 33°16' E 131°47'0 0.0
2018-Feb-19 15:31N 33°16' E 131°47'0 0.0
2018-Feb-19 08:19N 33°16' E 131°47'0 0.0
2018-Feb-19 07:55N 33°16' E 131°47'0 0.0
2018-Feb-19 02:59N 33°16' E 131°47'3 6.4
2018-Feb-19 02:29N 33°19' E 131°46'6 9.5
2018-Feb-19 01:53N 33°25' E 131°46'4 9.0
2018-Feb-19 01:29N 33°29' E 131°47'5 8.7
2018-Feb-19 00:54N 33°34' E 131°47'4 8.7
2018-Feb-19 00:30N 33°37' E 131°45'5 8.9
2018-Feb-18 23:59N 33°40' E 131°41'4 8.5
2018-Feb-18 23:29N 33°42' E 131°37'4 8.3
2018-Feb-18 22:59N 33°44' E 131°32'4 9.0
2018-Feb-18 22:30N 33°46' E 131°28'5 9.2
2018-Feb-18 21:59N 33°48' E 131°22'5 9.3
2018-Feb-18 21:30N 33°49' E 131°17'5 9.5
2018-Feb-18 21:00N 33°51' E 131°12'5 9.6
2018-Feb-18 20:30N 33°54' E 131°07'510.2
2018-Feb-18 20:00N 33°57' E 131°02'5 9.3
2018-Feb-18 19:30N 33°57' E 130°57'4 7.6
2018-Feb-18 19:00N 33°56' E 130°52'5 9.7
2018-Feb-18 18:30N 33°58' E 130°47'5 9.9
2018-Feb-18 18:00N 33°58' E 130°41'5 9.7
2018-Feb-18 17:30N 33°58' E 130°35'510.1
2018-Feb-18 17:00N 33°57' E 130°29'510.3
2018-Feb-18 16:30N 33°56' E 130°23'510.0
2018-Feb-18 16:00N 33°53' E 130°18'510.1
2018-Feb-18 15:30N 33°51' E 130°13'710.0
2018-Feb-18 14:50N 33°47' E 130°06'  
Track history (hours):
 
Tides and Currents Weather Stations Pressure Air Temp Water Temp Dewpoint Dewpoint Depression Visibility Wind Speed Wind Dir Waves Ship Positions

Dong Hao

Last reported at 2018-Feb-20 22:37 UTC. Time now 2018-Feb-21 19:53 UTC.
Position N 33°15' E 131°45'.

Length 76 m; draft 3.6 m.

Type: Cargo ship. MMSI: 667001752.

Date/timePositionNaut miles runAvg speedWind from/ knotsBaromVisibWave heightAir tempDewpointWater temp
2018-Feb-20 22:37N 33°15' E 131°45'1 5.6
2018-Feb-20 22:24N 33°16' E 131°44'2 3.6
2018-Feb-20 21:53N 33°16' E 131°47'0 0.0
2018-Feb-20 16:49N 33°16' E 131°47'0 0.0
2018-Feb-20 16:19N 33°16' E 131°47'0 0.0
2018-Feb-20 15:55N 33°16' E 131°47'0 0.0
2018-Feb-20 15:25N 33°16' E 131°47'0 0.0
2018-Feb-20 14:25N 33°16' E 131°47'0 0.0
2018-Feb-19 15:31N 33°16' E 131°47'0 0.0
2018-Feb-19 08:19N 33°16' E 131°47'0 0.0
2018-Feb-19 07:55N 33°16' E 131°47'0 0.0
2018-Feb-19 02:59N 33°16' E 131°47'3 6.4
2018-Feb-19 02:29N 33°19' E 131°46'6 9.5
2018-Feb-19 01:53N 33°25' E 131°46'4 9.0
2018-Feb-19 01:29N 33°29' E 131°47'5 8.7
2018-Feb-19 00:54N 33°34' E 131°47'4 8.7
2018-Feb-19 00:30N 33°37' E 131°45'5 8.9
2018-Feb-18 23:59N 33°40' E 131°41'4 8.5
2018-Feb-18 23:29N 33°42' E 131°37'4 8.3
2018-Feb-18 22:59N 33°44' E 131°32'4 9.0
2018-Feb-18 22:30N 33°46' E 131°28'5 9.2
2018-Feb-18 21:59N 33°48' E 131°22'5 9.3
2018-Feb-18 21:30N 33°49' E 131°17'5 9.5
2018-Feb-18 21:00N 33°51' E 131°12'5 9.6
2018-Feb-18 20:30N 33°54' E 131°07'510.2
2018-Feb-18 20:00N 33°57' E 131°02'5 9.3
2018-Feb-18 19:30N 33°57' E 130°57'4 7.6
2018-Feb-18 19:00N 33°56' E 130°52'5 9.7
2018-Feb-18 18:30N 33°58' E 130°47'5 9.9
2018-Feb-18 18:00N 33°58' E 130°41'5 9.7
2018-Feb-18 17:30N 33°58' E 130°35'510.1
2018-Feb-18 17:00N 33°57' E 130°29'510.3
2018-Feb-18 16:30N 33°56' E 130°23'510.0
2018-Feb-18 16:00N 33°53' E 130°18'510.1
2018-Feb-18 15:30N 33°51' E 130°13'710.0
2018-Feb-18 14:50N 33°47' E 130°06'  

Dump ship's entire track history